createdAt,value
2019-05-09T00:01:37.849Z,14.80
2019-05-09T00:04:43.903Z,15.57
2019-05-09T00:07:47.467Z,15.63
2019-05-09T00:10:53.291Z,15.43
2019-05-09T00:13:56.892Z,15.80
2019-05-09T00:17:00.704Z,15.40
2019-05-09T00:20:13.728Z,15.77
2019-05-09T00:23:17.552Z,15.57
2019-05-09T00:26:23.498Z,17.07
2019-05-09T00:29:33.563Z,15.90
2019-05-09T00:32:39.377Z,17.60
2019-05-09T00:35:44.230Z,17.10
2019-05-09T00:38:48.212Z,17.63
2019-05-09T00:41:53.891Z,18.37
2019-05-09T00:44:59.489Z,17.90
2019-05-09T00:48:03.799Z,19.57
2019-05-09T00:51:07.644Z,19.30
2019-05-09T00:54:13.500Z,19.47
2019-05-09T00:57:35.524Z,19.17
2019-05-09T01:00:39.462Z,18.87
2019-05-09T01:03:43.428Z,18.47
2019-05-09T01:06:47.292Z,18.67
2019-05-09T01:09:51.229Z,20.40
2019-05-09T01:12:55.073Z,19.13
2019-05-09T01:15:58.901Z,20.50
2019-05-09T01:19:03.759Z,20.43
2019-05-09T01:22:07.709Z,19.83
2019-05-09T01:25:13.453Z,21.00
2019-05-09T01:28:17.229Z,20.27
2019-05-09T01:31:21.139Z,18.97
2019-05-09T01:34:28.474Z,17.73
2019-05-09T01:37:34.198Z,18.27
2019-05-09T01:40:38.014Z,18.10
2019-05-09T01:43:44.158Z,18.60
2019-05-09T01:46:47.458Z,18.67
2019-05-09T01:49:51.297Z,18.27
2019-05-09T01:52:55.159Z,18.10
2019-05-09T01:55:59.136Z,17.97
2019-05-09T01:59:03.201Z,18.13
2019-05-09T02:02:08.713Z,17.73
2019-05-09T02:05:13.572Z,17.20
2019-05-09T02:08:17.500Z,18.30
2019-05-09T02:11:23.636Z,18.23
2019-05-09T02:14:48.775Z,19.00
2019-05-09T02:18:05.278Z,20.63
2019-05-09T02:21:11.366Z,20.37
2019-05-09T02:24:14.326Z,21.67
2019-05-09T02:27:18.255Z,21.63
2019-05-09T02:30:25.403Z,23.33
2019-05-09T02:33:28.009Z,24.03
2019-05-09T02:36:31.879Z,23.90
2019-05-09T02:39:35.735Z,24.63
2019-05-09T02:42:40.125Z,24.93
2019-05-09T02:45:54.682Z,26.50
2019-05-09T02:48:59.651Z,26.17
2019-05-09T02:52:04.020Z,26.70
2019-05-09T02:55:09.760Z,27.13
2019-05-09T02:58:20.404Z,27.97
2019-05-09T03:01:29.858Z,29.00
2019-05-09T03:04:33.819Z,29.43
2019-05-09T03:07:58.417Z,30.33
2019-05-09T03:11:01.772Z,32.60
2019-05-09T03:14:08.787Z,34.57
2019-05-09T03:17:11.429Z,36.70
2019-05-09T03:20:35.259Z,37.77
2019-05-09T03:23:39.221Z,41.37
2019-05-09T03:26:45.433Z,39.93
2019-05-09T03:29:53.075Z,41.93
2019-05-09T03:32:59.607Z,38.77
2019-05-09T03:36:02.592Z,38.47
2019-05-09T03:39:08.270Z,37.03
2019-05-09T03:42:12.236Z,38.63
2019-05-09T03:45:18.309Z,37.47
2019-05-09T03:48:28.436Z,37.80
2019-05-09T03:51:32.364Z,36.27
2019-05-09T03:54:38.758Z,35.90
2019-05-09T03:57:47.702Z,36.50
2019-05-09T04:00:51.581Z,36.23
2019-05-09T04:03:55.532Z,35.47
2019-05-09T04:06:59.404Z,36.07
2019-05-09T04:10:03.340Z,36.93
2019-05-09T04:13:08.227Z,37.50
2019-05-09T04:16:12.845Z,39.43
2019-05-09T04:19:17.485Z,40.97
2019-05-09T04:22:21.439Z,38.63
2019-05-09T04:25:29.549Z,38.93
2019-05-09T04:28:33.591Z,37.70
2019-05-09T04:31:38.341Z,38.90
2019-05-09T04:34:42.442Z,38.57
2019-05-09T04:37:48.231Z,38.47
2019-05-09T04:40:51.869Z,37.13
2019-05-09T04:43:57.468Z,35.83
2019-05-09T04:47:03.531Z,37.90
2019-05-09T04:50:07.690Z,37.83
2019-05-09T04:53:11.780Z,36.60
2019-05-09T04:56:20.654Z,37.07
2019-05-09T04:59:24.519Z,37.70
2019-05-09T05:02:41.792Z,36.70
2019-05-09T05:05:48.144Z,35.43
2019-05-09T05:08:51.443Z,34.40
2019-05-09T05:11:57.688Z,36.20
2019-05-09T05:15:00.946Z,35.87
2019-05-09T05:18:04.812Z,37.47
2019-05-09T05:21:08.624Z,36.00
2019-05-09T05:24:31.494Z,35.57
2019-05-09T05:27:35.369Z,36.53
2019-05-09T05:30:39.271Z,36.00
2019-05-09T05:33:53.334Z,34.43
2019-05-09T05:36:54.578Z,34.00
2019-05-09T05:39:58.506Z,34.70
2019-05-09T05:43:02.419Z,33.67
2019-05-09T05:46:14.674Z,36.83
2019-05-09T05:49:18.733Z,33.27
2019-05-09T05:52:22.629Z,33.73
2019-05-09T05:55:27.438Z,34.23
2019-05-09T05:58:41.468Z,35.70
2019-05-09T06:01:47.718Z,33.70
2019-05-09T06:04:51.189Z,33.53
2019-05-09T06:07:57.447Z,34.63
2019-05-09T06:11:00.689Z,31.63
2019-05-09T06:14:09.367Z,32.27
2019-05-09T06:17:11.040Z,31.90
2019-05-09T06:20:17.746Z,32.23
2019-05-09T06:23:22.638Z,31.70
2019-05-09T06:26:29.435Z,30.90
2019-05-09T06:29:33.597Z,31.63
2019-05-09T06:32:38.514Z,31.03
2019-05-09T06:35:44.668Z,32.53
2019-05-09T06:38:49.159Z,30.90
2019-05-09T06:41:53.387Z,28.23
2019-05-09T06:45:08.226Z,29.73
2019-05-09T06:48:13.167Z,28.23
2019-05-09T06:51:21.106Z,30.07
2019-05-09T06:54:23.550Z,27.80
2019-05-09T06:57:38.978Z,28.07
2019-05-09T07:00:52.126Z,27.50
2019-05-09T07:04:00.564Z,23.97
2019-05-09T07:07:12.204Z,22.47
2019-05-09T07:10:17.813Z,20.67
2019-05-09T07:13:21.731Z,19.63
2019-05-09T07:16:27.547Z,18.53
2019-05-09T07:19:31.172Z,13.67
2019-05-09T07:22:50.391Z,15.53
2019-05-09T07:26:11.469Z,15.10
2019-05-09T07:29:17.315Z,15.37
2019-05-09T07:32:22.015Z,15.13
2019-05-09T07:35:27.818Z,14.67
2019-05-09T07:38:32.406Z,14.13
2019-05-09T07:41:38.251Z,13.13
2019-05-09T07:44:48.806Z,13.93
2019-05-09T07:47:47.990Z,12.60
2019-05-09T07:50:51.963Z,12.47
2019-05-09T07:53:55.870Z,12.23
2019-05-09T07:56:59.783Z,12.47
2019-05-09T08:00:03.985Z,11.43
2019-05-09T08:03:12.058Z,10.73
2019-05-09T08:06:13.512Z,11.10
2019-05-09T08:09:18.646Z,11.80
2019-05-09T08:12:22.675Z,10.67
2019-05-09T08:15:28.075Z,10.50
2019-05-09T08:18:32.059Z,10.50
2019-05-09T08:21:38.109Z,10.80
2019-05-09T08:24:41.450Z,11.03
2019-05-09T08:27:45.298Z,10.53
2019-05-09T08:30:49.145Z,11.80
2019-05-09T08:33:53.153Z,11.33
2019-05-09T08:36:58.008Z,11.43
2019-05-09T08:40:02.160Z,10.73
2019-05-09T08:43:07.579Z,10.63
2019-05-09T08:46:12.768Z,11.40
2019-05-09T08:49:18.233Z,12.03
2019-05-09T08:52:22.115Z,10.77
2019-05-09T08:55:27.854Z,11.27
2019-05-09T08:58:31.522Z,10.33
2019-05-09T09:02:04.962Z,8.60
2019-05-09T09:04:41.007Z,9.00
2019-05-09T09:07:44.812Z,8.83
2019-05-09T09:10:49.067Z,8.37
2019-05-09T09:13:53.054Z,7.73
2019-05-09T09:16:57.611Z,8.63
2019-05-09T09:20:01.733Z,7.23
2019-05-09T09:23:05.679Z,8.50
2019-05-09T09:26:09.623Z,7.70
2019-05-09T09:29:13.478Z,6.93
2019-05-09T09:32:18.860Z,7.57
2019-05-09T09:35:23.171Z,7.43
2019-05-09T09:38:28.150Z,8.07
2019-05-09T09:41:32.074Z,7.80
2019-05-09T09:44:35.922Z,6.37
2019-05-09T09:47:40.552Z,6.30
2019-05-09T09:50:44.656Z,7.27
2019-05-09T09:53:49.046Z,7.43
2019-05-09T09:56:53.894Z,8.23
2019-05-09T10:00:15.369Z,8.47
2019-05-09T10:03:19.928Z,9.07
2019-05-09T10:06:28.490Z,8.63
2019-05-09T10:09:32.426Z,8.27
2019-05-09T10:12:43.580Z,8.20
2019-05-09T10:16:13.086Z,7.70
2019-05-09T10:19:23.755Z,6.63
2019-05-09T10:22:27.653Z,8.13
2019-05-09T10:25:31.519Z,8.17
2019-05-09T10:28:37.848Z,7.27
2019-05-09T10:31:40.998Z,7.00
2019-05-09T10:34:44.981Z,7.27
2019-05-09T10:37:48.814Z,7.70
2019-05-09T10:40:53.444Z,7.57
2019-05-09T10:44:08.299Z,7.40
2019-05-09T10:47:32.101Z,5.70
2019-05-09T10:50:43.143Z,5.30
2019-05-09T10:53:41.479Z,6.00
2019-05-09T10:56:45.445Z,4.40
2019-05-09T10:59:49.294Z,4.60
2019-05-09T11:02:53.124Z,4.17
2019-05-09T11:05:57.945Z,3.80
2019-05-09T11:09:01.927Z,4.73
2019-05-09T11:12:07.926Z,3.60
2019-05-09T11:15:11.582Z,3.47
2019-05-09T11:18:18.627Z,3.17
2019-05-09T11:21:25.028Z,2.60
2019-05-09T11:24:41.803Z,2.93
2019-05-09T11:27:34.844Z,3.27
2019-05-09T11:30:38.805Z,3.07
2019-05-09T11:33:42.555Z,2.77
2019-05-09T11:36:46.429Z,2.47
2019-05-09T11:39:50.224Z,2.53
2019-05-09T11:42:54.122Z,2.60
2019-05-09T11:45:58.653Z,3.23
2019-05-09T11:49:02.914Z,3.23
2019-05-09T11:52:08.396Z,3.27
2019-05-09T11:55:28.694Z,2.70
2019-05-09T11:58:18.309Z,2.80
2019-05-09T12:01:22.141Z,2.50
2019-05-09T12:04:28.077Z,2.50
2019-05-09T12:07:31.565Z,2.67
2019-05-09T12:10:38.087Z,2.90
2019-05-09T12:13:40.999Z,2.40
2019-05-09T12:16:44.853Z,2.30
2019-05-09T12:19:49.032Z,2.47
2019-05-09T12:22:52.882Z,2.07
2019-05-09T12:25:58.243Z,2.57
2019-05-09T12:29:02.169Z,2.27
2019-05-09T12:32:08.578Z,2.83
2019-05-09T12:35:11.910Z,2.87
2019-05-09T12:38:17.917Z,2.40
2019-05-09T12:41:21.356Z,2.37
2019-05-09T12:44:25.357Z,2.70
2019-05-09T12:47:29.384Z,2.60
2019-05-09T12:50:33.145Z,2.40
2019-05-09T12:53:39.383Z,1.60
2019-05-09T12:56:42.629Z,2.47
2019-05-09T12:59:52.410Z,2.07
2019-05-09T13:02:52.016Z,2.27
2019-05-09T13:05:57.473Z,1.80
2019-05-09T13:09:01.462Z,2.13
2019-05-09T13:12:05.534Z,1.93
2019-05-09T13:15:09.434Z,1.63
2019-05-09T13:18:24.633Z,1.90
2019-05-09T13:21:20.436Z,1.70
2019-05-09T13:24:24.335Z,1.97
2019-05-09T13:27:28.670Z,1.80
2019-05-09T13:30:32.549Z,2.10
2019-05-09T13:33:38.482Z,1.87
2019-05-09T13:36:42.119Z,2.10
2019-05-09T13:39:47.581Z,1.80
2019-05-09T13:42:51.546Z,1.73
2019-05-09T13:45:55.376Z,2.00
2019-05-09T13:49:11.029Z,1.87
2019-05-09T13:52:05.317Z,1.90
2019-05-09T13:55:09.405Z,1.93
2019-05-09T13:58:13.708Z,2.13
2019-05-09T14:01:17.867Z,2.03
2019-05-09T14:04:21.906Z,2.13
2019-05-09T14:07:27.924Z,2.00
2019-05-09T14:10:31.282Z,1.90
2019-05-09T14:13:35.245Z,1.93
2019-05-09T14:16:39.271Z,2.50
2019-05-09T14:19:46.820Z,2.07
2019-05-09T14:22:49.167Z,2.20
2019-05-09T14:25:53.035Z,1.87
2019-05-09T14:28:58.294Z,1.90
2019-05-09T14:32:04.814Z,1.93
2019-05-09T14:35:08.672Z,1.60
2019-05-09T14:38:12.493Z,2.20
2019-05-09T14:41:16.462Z,3.20
2019-05-09T14:44:20.278Z,3.00
2019-05-09T14:47:24.235Z,1.70
2019-05-09T14:50:28.555Z,2.07
2019-05-09T14:53:33.184Z,2.20
2019-05-09T14:56:41.698Z,2.07
2019-05-09T14:59:42.603Z,2.07
2019-05-09T15:02:48.700Z,2.20
2019-05-09T15:05:52.026Z,1.83
2019-05-09T15:08:57.910Z,1.90
2019-05-09T15:12:01.386Z,1.47
2019-05-09T15:15:07.547Z,1.60
2019-05-09T15:18:12.381Z,2.37
2019-05-09T15:21:18.928Z,3.63
2019-05-09T15:24:21.821Z,1.90
2019-05-09T15:27:27.664Z,1.80
2019-05-09T15:30:31.171Z,2.00
2019-05-09T15:33:37.455Z,2.50
2019-05-09T15:36:40.562Z,2.40
2019-05-09T15:39:44.377Z,2.00
2019-05-09T15:42:48.320Z,2.10
2019-05-09T15:46:20.447Z,2.10
2019-05-09T15:49:24.271Z,1.67
2019-05-09T15:52:28.668Z,1.23
2019-05-09T15:55:32.497Z,0.60
2019-05-09T15:58:38.523Z,0.80
2019-05-09T16:01:41.963Z,1.00
2019-05-09T16:04:47.542Z,0.70
2019-05-09T16:07:51.483Z,0.90
2019-05-09T16:10:57.927Z,0.60
2019-05-09T16:14:03.114Z,0.60
2019-05-09T16:17:07.840Z,0.67
2019-05-09T16:20:12.329Z,0.80
2019-05-09T16:23:18.418Z,0.60
2019-05-09T16:26:21.694Z,0.87
2019-05-09T16:29:27.983Z,0.93
2019-05-09T16:32:31.313Z,1.00
2019-05-09T16:35:35.129Z,1.03
2019-05-09T16:38:45.395Z,1.33
2019-05-09T16:41:44.883Z,0.90
2019-05-09T16:44:48.755Z,0.93
2019-05-09T16:47:52.576Z,1.30
2019-05-09T16:51:03.377Z,0.83
2019-05-09T16:54:02.012Z,1.37
2019-05-09T16:57:08.317Z,1.07
2019-05-09T17:00:14.541Z,1.40
2019-05-09T17:03:18.521Z,1.10
2019-05-09T17:06:22.408Z,1.40
2019-05-09T17:09:28.465Z,1.47
2019-05-09T17:12:32.100Z,1.23
2019-05-09T17:15:38.750Z,1.40
2019-05-09T17:18:41.757Z,1.60
2019-05-09T17:22:02.846Z,1.10
2019-05-09T17:25:07.976Z,1.23
2019-05-09T17:28:11.966Z,1.20
2019-05-09T17:31:18.098Z,0.70
2019-05-09T17:34:21.777Z,1.03
2019-05-09T17:37:25.676Z,1.30
2019-05-09T17:40:31.421Z,1.20
2019-05-09T17:43:35.245Z,1.70
2019-05-09T17:46:40.178Z,1.00
2019-05-09T17:49:43.989Z,1.10
2019-05-09T17:52:48.183Z,1.40
2019-05-09T17:55:52.225Z,1.40
2019-05-09T17:58:57.867Z,1.47
2019-05-09T18:02:01.718Z,1.73
2019-05-09T18:05:11.789Z,1.57
2019-05-09T18:08:40.575Z,2.10
2019-05-09T18:11:44.526Z,2.40
2019-05-09T18:14:48.514Z,2.50
2019-05-09T18:17:52.417Z,3.27
2019-05-09T18:20:57.999Z,2.87
2019-05-09T18:24:02.067Z,3.27
2019-05-09T18:27:07.671Z,3.37
2019-05-09T18:30:12.826Z,3.00
2019-05-09T18:33:31.475Z,4.03
2019-05-09T18:36:38.025Z,3.30
2019-05-09T18:39:40.888Z,3.30
2019-05-09T18:42:44.855Z,3.70
2019-05-09T18:45:48.699Z,3.27
2019-05-09T18:48:52.497Z,3.07
2019-05-09T18:52:03.986Z,3.10
2019-05-09T18:55:01.902Z,3.23
2019-05-09T18:58:05.917Z,3.57
2019-05-09T19:01:09.784Z,3.03
2019-05-09T19:04:13.687Z,3.37
2019-05-09T19:07:22.546Z,3.00
2019-05-09T19:10:23.157Z,3.33
2019-05-09T19:13:27.054Z,3.40
2019-05-09T19:16:39.205Z,4.07
2019-05-09T19:19:49.562Z,3.90
2019-05-09T19:22:53.529Z,4.23
2019-05-09T19:25:59.079Z,4.70
2019-05-09T19:29:02.967Z,4.17
2019-05-09T19:32:06.843Z,5.23
2019-05-09T19:35:10.891Z,6.43
2019-05-09T19:38:14.731Z,7.00
2019-05-09T19:41:18.689Z,6.03
2019-05-09T19:44:22.528Z,6.07
2019-05-09T19:47:26.425Z,7.33
2019-05-09T19:50:30.353Z,6.57
2019-05-09T19:53:34.171Z,6.57
2019-05-09T19:56:38.027Z,5.50
2019-05-09T19:59:42.011Z,5.53
2019-05-09T20:02:45.888Z,6.40
2019-05-09T20:05:49.718Z,5.73
2019-05-09T20:08:53.685Z,6.10
2019-05-09T20:12:10.465Z,5.63
2019-05-09T20:15:17.086Z,5.37
2019-05-09T20:18:20.890Z,6.40
2019-05-09T20:21:24.872Z,6.00
2019-05-09T20:24:28.771Z,5.70
2019-05-09T20:27:32.665Z,6.37
2019-05-09T20:30:36.488Z,6.50
2019-05-09T20:33:40.317Z,6.50
2019-05-09T20:36:44.287Z,6.87
2019-05-09T20:39:48.297Z,6.57
2019-05-09T20:42:52.383Z,6.20
2019-05-09T20:45:56.438Z,6.90
2019-05-09T20:49:00.439Z,7.10
2019-05-09T20:52:04.499Z,6.43
2019-05-09T20:55:08.654Z,6.27
2019-05-09T20:58:12.700Z,6.77
2019-05-09T21:01:16.850Z,7.00
2019-05-09T21:04:20.864Z,7.40
2019-05-09T21:07:24.844Z,7.13
2019-05-09T21:10:28.859Z,7.00
2019-05-09T21:13:47.396Z,6.37
2019-05-09T21:16:38.589Z,6.90
2019-05-09T21:19:42.608Z,6.83
2019-05-09T21:22:46.598Z,6.37
2019-05-09T21:25:50.671Z,7.40
2019-05-09T21:28:54.597Z,8.13
2019-05-09T21:31:58.685Z,8.10
2019-05-09T21:35:02.859Z,8.53
2019-05-09T21:38:06.741Z,7.83
2019-05-09T21:41:10.633Z,7.67
2019-05-09T21:44:14.426Z,7.83
2019-05-09T21:47:18.240Z,7.27
2019-05-09T21:50:22.040Z,6.47
2019-05-09T21:53:39.791Z,6.80
2019-05-09T21:56:31.424Z,6.80
2019-05-09T21:59:35.257Z,6.33
2019-05-09T22:02:39.215Z,5.90
2019-05-09T22:05:43.119Z,5.27
2019-05-09T22:08:47.006Z,6.00
2019-05-09T22:11:50.871Z,5.30
2019-05-09T22:14:54.715Z,5.97
2019-05-09T22:17:58.668Z,5.03
2019-05-09T22:21:02.514Z,5.23
2019-05-09T22:24:06.463Z,5.20
2019-05-09T22:27:10.277Z,5.60
2019-05-09T22:30:15.600Z,5.27
2019-05-09T22:33:19.400Z,5.13
2019-05-09T22:36:23.293Z,5.07
2019-05-09T22:39:27.146Z,5.53
2019-05-09T22:42:31.104Z,6.00
2019-05-09T22:45:35.039Z,6.40
2019-05-09T22:48:38.847Z,6.80
2019-05-09T22:51:42.678Z,6.77
2019-05-09T22:54:46.482Z,6.73
2019-05-09T22:57:50.431Z,6.30
2019-05-09T23:00:54.408Z,5.80
2019-05-09T23:03:58.271Z,5.97
2019-05-09T23:07:02.156Z,6.13
2019-05-09T23:10:06.370Z,6.30
2019-05-09T23:13:10.264Z,5.97
2019-05-09T23:16:14.136Z,5.97
2019-05-09T23:19:17.964Z,6.20
2019-05-09T23:22:24.337Z,7.20
2019-05-09T23:25:28.142Z,6.43
2019-05-09T23:28:32.028Z,6.57
2019-05-09T23:31:50.288Z,6.97
2019-05-09T23:34:54.185Z,7.37
2019-05-09T23:37:58.428Z,7.13
2019-05-09T23:41:02.271Z,8.17
2019-05-09T23:44:06.152Z,8.17
2019-05-09T23:47:10.154Z,7.87
2019-05-09T23:50:14.115Z,8.20
2019-05-09T23:53:31.583Z,7.87
2019-05-09T23:56:53.087Z,7.80
